N2RF UNBB-UNKM
Flight info
| Callsign | N2RF |
|---|---|
| Flight time | 1h 16m |
| Altitude | 45000 |
| Route | RISET2F RISET G121 NOSPI/K0891F390 B156 ROGMA ROGMA2Z |
| Aircraft | C700/M-SABDE1E2E3FGHJ4J7M3P2RWXYZ/LB2 |
Departure
| Time | 2026-05-08 14:38 |
|---|---|
| Airport | Barnaul Gherman Titov International Airport (UNBB) |
Arrival
| Time | 2026-05-08 15:54 |
|---|---|
| Airport | Krasnoyarsk Cheremshanka Airport (UNKM) |
| Time | Latitude | Longitude | Altitude | Speed | Heading |
|---|---|---|---|---|---|
| 2026-05-08 14:32 | 53.36294 | 83.54857 | 833 ft | 0 kts | 68° |
| 2026-05-08 14:35 | 53.36296 | 83.54864 | 833 ft | 2 kts | 68° |
| 2026-05-08 14:35 | 53.36316 | 83.54904 | 831 ft | 5 kts | 25° |
| 2026-05-08 14:35 | 53.36370 | 83.54911 | 835 ft | 10 kts | 34° |
| 2026-05-08 14:35 | 53.36398 | 83.55012 | 837 ft | 13 kts | 68° |
| 2026-05-08 14:36 | 53.36442 | 83.55199 | 837 ft | 22 kts | 69° |
| 2026-05-08 14:36 | 53.36506 | 83.55473 | 836 ft | 30 kts | 69° |
| 2026-05-08 14:36 | 53.36572 | 83.55741 | 835 ft | 19 kts | 62° |
| 2026-05-08 14:36 | 53.36632 | 83.55955 | 834 ft | 12 kts | 62° |
| 2026-05-08 14:37 | 53.36691 | 83.56010 | 836 ft | 10 kts | 351° |
| 2026-05-08 14:37 | 53.36780 | 83.55947 | 836 ft | 19 kts | 313° |
| 2026-05-08 14:37 | 53.36737 | 83.55641 | 834 ft | 58 kts | 248° |
| 2026-05-08 14:37 | 53.36453 | 83.54514 | 835 ft | 150 kts | 246° |
| 2026-05-08 14:38 | 53.35967 | 83.52594 | 1280 ft | 205 kts | 247° |
| 2026-05-08 14:38 | 53.35494 | 83.50122 | 2141 ft | 246 kts | 265° |
| 2026-05-08 14:38 | 53.35915 | 83.47423 | 3138 ft | 233 kts | 306° |
| 2026-05-08 14:38 | 53.37205 | 83.45952 | 4013 ft | 239 kts | 348° |
| 2026-05-08 14:39 | 53.38917 | 83.46296 | 5112 ft | 264 kts | 26° |
| 2026-05-08 14:39 | 53.40295 | 83.48449 | 6376 ft | 283 kts | 60° |
| 2026-05-08 14:39 | 53.40787 | 83.51714 | 7669 ft | 299 kts | 88° |
| 2026-05-08 14:39 | 53.40677 | 83.55275 | 9080 ft | 313 kts | 94° |
| 2026-05-08 14:40 | 53.40576 | 83.58975 | 10510 ft | 324 kts | 89° |
| 2026-05-08 14:40 | 53.40771 | 83.62765 | 11950 ft | 330 kts | 79° |
| 2026-05-08 14:40 | 53.41233 | 83.66562 | 13478 ft | 336 kts | 76° |
| 2026-05-08 14:40 | 53.41688 | 83.70392 | 14921 ft | 342 kts | 79° |
| 2026-05-08 14:41 | 53.42025 | 83.74355 | 16420 ft | 345 kts | 81° |
| 2026-05-08 14:41 | 53.42351 | 83.78335 | 17971 ft | 345 kts | 79° |
| 2026-05-08 14:41 | 53.42822 | 83.82259 | 19372 ft | 342 kts | 76° |
| 2026-05-08 14:41 | 53.43267 | 83.86154 | 20722 ft | 338 kts | 77° |
| 2026-05-08 14:42 | 53.43676 | 83.89995 | 22041 ft | 332 kts | 77° |
| 2026-05-08 14:42 | 53.44093 | 83.93785 | 23325 ft | 328 kts | 77° |
| 2026-05-08 14:42 | 53.44514 | 83.97498 | 24134 ft | 337 kts | 76° |
| 2026-05-08 14:42 | 53.44970 | 84.01523 | 24329 ft | 366 kts | 77° |
| 2026-05-08 14:43 | 53.45448 | 84.05880 | 24496 ft | 394 kts | 77° |
| 2026-05-08 14:43 | 53.45957 | 84.10560 | 24786 ft | 416 kts | 77° |
| 2026-05-08 14:43 | 53.46481 | 84.15362 | 25641 ft | 421 kts | 77° |
| 2026-05-08 14:43 | 53.47015 | 84.20236 | 26389 ft | 429 kts | 77° |
| 2026-05-08 14:44 | 53.47557 | 84.25197 | 27143 ft | 436 kts | 77° |
| 2026-05-08 14:44 | 53.48103 | 84.30249 | 27900 ft | 443 kts | 77° |
| 2026-05-08 14:44 | 53.48653 | 84.35362 | 28638 ft | 450 kts | 77° |
| 2026-05-08 14:44 | 53.49207 | 84.40510 | 29356 ft | 457 kts | 77° |
| 2026-05-08 14:45 | 53.49774 | 84.45809 | 30068 ft | 464 kts | 77° |
| 2026-05-08 14:45 | 53.50387 | 84.51152 | 30688 ft | 468 kts | 73° |
| 2026-05-08 14:45 | 53.51117 | 84.56344 | 31308 ft | 473 kts | 73° |
| 2026-05-08 14:45 | 53.51880 | 84.61739 | 31919 ft | 478 kts | 73° |
| 2026-05-08 14:46 | 53.52636 | 84.67210 | 32509 ft | 482 kts | 73° |
| 2026-05-08 14:46 | 53.53390 | 84.72726 | 33071 ft | 487 kts | 73° |
| 2026-05-08 14:46 | 53.54153 | 84.78272 | 33832 ft | 486 kts | 73° |
| 2026-05-08 14:46 | 53.54904 | 84.83723 | 34501 ft | 484 kts | 73° |
| 2026-05-08 14:47 | 53.55658 | 84.89227 | 35167 ft | 482 kts | 73° |
| 2026-05-08 14:47 | 53.56403 | 84.94719 | 35830 ft | 480 kts | 73° |
| 2026-05-08 14:47 | 53.57143 | 85.00184 | 36444 ft | 479 kts | 73° |
| 2026-05-08 14:47 | 53.57880 | 85.05633 | 37039 ft | 477 kts | 73° |
| 2026-05-08 14:48 | 53.58613 | 85.11066 | 37611 ft | 475 kts | 73° |
| 2026-05-08 14:48 | 53.59339 | 85.16488 | 38154 ft | 474 kts | 73° |
| 2026-05-08 14:48 | 53.60061 | 85.21895 | 38660 ft | 473 kts | 73° |
| 2026-05-08 14:48 | 53.60772 | 85.27215 | 39020 ft | 472 kts | 73° |
| 2026-05-08 14:49 | 53.61493 | 85.32607 | 39345 ft | 472 kts | 73° |
| 2026-05-08 14:49 | 53.62210 | 85.38004 | 39668 ft | 472 kts | 74° |
| 2026-05-08 14:49 | 53.62924 | 85.43413 | 39983 ft | 473 kts | 74° |
| 2026-05-08 14:49 | 53.63634 | 85.48812 | 40300 ft | 473 kts | 74° |
| 2026-05-08 14:50 | 53.64345 | 85.54223 | 40602 ft | 473 kts | 74° |
| 2026-05-08 14:50 | 53.65054 | 85.59640 | 40900 ft | 473 kts | 74° |
| 2026-05-08 14:50 | 53.65759 | 85.65056 | 41190 ft | 473 kts | 74° |
| 2026-05-08 14:50 | 53.66462 | 85.70472 | 41479 ft | 473 kts | 74° |
| 2026-05-08 14:51 | 53.67153 | 85.75823 | 41754 ft | 474 kts | 74° |
| 2026-05-08 14:51 | 53.67853 | 85.81259 | 42029 ft | 474 kts | 74° |
| 2026-05-08 14:51 | 53.68550 | 85.86688 | 42305 ft | 474 kts | 74° |
| 2026-05-08 14:51 | 53.69245 | 85.92125 | 42570 ft | 474 kts | 75° |
| 2026-05-08 14:52 | 53.69937 | 85.97564 | 42822 ft | 474 kts | 75° |
| 2026-05-08 14:52 | 53.71315 | 86.08455 | 43326 ft | 475 kts | 75° |
| 2026-05-08 14:52 | 53.72001 | 86.13908 | 43568 ft | 475 kts | 75° |
| 2026-05-08 14:53 | 53.72685 | 86.19362 | 43810 ft | 475 kts | 75° |
| 2026-05-08 14:53 | 53.73360 | 86.24745 | 44046 ft | 475 kts | 75° |
| 2026-05-08 14:53 | 53.74042 | 86.30204 | 44270 ft | 475 kts | 75° |
| 2026-05-08 14:53 | 53.74720 | 86.35668 | 44486 ft | 475 kts | 75° |
| 2026-05-08 14:54 | 53.75395 | 86.41128 | 44705 ft | 475 kts | 75° |
| 2026-05-08 14:54 | 53.76069 | 86.46594 | 44886 ft | 475 kts | 75° |
| 2026-05-08 14:54 | 53.76741 | 86.52065 | 44992 ft | 477 kts | 75° |
| 2026-05-08 14:55 | 53.78095 | 86.63157 | 44999 ft | 486 kts | 75° |
| 2026-05-08 14:55 | 53.79449 | 86.74354 | 45006 ft | 493 kts | 75° |
| 2026-05-08 14:56 | 53.81020 | 86.85734 | 45007 ft | 497 kts | 66° |
| 2026-05-08 14:56 | 53.84179 | 86.96078 | 45007 ft | 497 kts | 53° |
| 2026-05-08 14:57 | 53.87918 | 87.06028 | 45001 ft | 505 kts | 53° |
| 2026-05-08 14:57 | 53.91690 | 87.16141 | 45004 ft | 509 kts | 53° |
| 2026-05-08 14:58 | 53.95447 | 87.26226 | 45004 ft | 509 kts | 53° |
| 2026-05-08 14:58 | 53.99221 | 87.36422 | 45009 ft | 509 kts | 53° |
| 2026-05-08 14:59 | 54.02985 | 87.46615 | 45006 ft | 509 kts | 54° |
| 2026-05-08 14:59 | 54.08553 | 87.61766 | 45007 ft | 509 kts | 54° |
| 2026-05-08 15:00 | 54.12122 | 87.71510 | 45013 ft | 509 kts | 54° |
| 2026-05-08 15:00 | 54.15856 | 87.81771 | 45010 ft | 509 kts | 54° |
| 2026-05-08 15:01 | 54.19537 | 87.91909 | 45016 ft | 509 kts | 54° |
| 2026-05-08 15:01 | 54.23256 | 88.02204 | 45019 ft | 509 kts | 54° |
| 2026-05-08 15:02 | 54.26941 | 88.12442 | 45023 ft | 509 kts | 54° |
| 2026-05-08 15:02 | 54.30643 | 88.22776 | 45025 ft | 509 kts | 54° |
| 2026-05-08 15:03 | 54.34333 | 88.33114 | 45026 ft | 509 kts | 54° |
| 2026-05-08 15:03 | 54.38021 | 88.43495 | 45035 ft | 509 kts | 54° |
| 2026-05-08 15:04 | 54.41696 | 88.53878 | 45032 ft | 509 kts | 54° |
| 2026-05-08 15:04 | 54.45336 | 88.64209 | 45037 ft | 508 kts | 54° |
| 2026-05-08 15:05 | 54.48991 | 88.74621 | 45032 ft | 509 kts | 55° |
| 2026-05-08 15:05 | 54.52646 | 88.85059 | 45033 ft | 509 kts | 55° |
| 2026-05-08 15:06 | 54.55892 | 88.94381 | 45021 ft | 509 kts | 55° |
| 2026-05-08 15:06 | 54.59523 | 89.04840 | 45018 ft | 509 kts | 55° |
| 2026-05-08 15:07 | 54.63104 | 89.15204 | 44997 ft | 505 kts | 55° |
| 2026-05-08 15:07 | 54.64870 | 89.20343 | 44996 ft | 489 kts | 55° |
| 2026-05-08 15:07 | 54.66570 | 89.25297 | 44984 ft | 471 kts | 55° |
| 2026-05-08 15:08 | 54.67964 | 89.29354 | 44981 ft | 458 kts | 55° |
| 2026-05-08 15:08 | 54.69033 | 89.32466 | 44992 ft | 450 kts | 55° |
| 2026-05-08 15:08 | 54.72750 | 89.43326 | 44977 ft | 452 kts | 55° |
| 2026-05-08 15:09 | 54.75946 | 89.52725 | 44985 ft | 460 kts | 55° |
| 2026-05-08 15:09 | 54.79196 | 89.62315 | 44981 ft | 463 kts | 55° |
| 2026-05-08 15:10 | 54.82456 | 89.71968 | 44984 ft | 468 kts | 56° |
| 2026-05-08 15:10 | 54.84107 | 89.76871 | 44859 ft | 474 kts | 56° |
| 2026-05-08 15:10 | 54.85218 | 89.80175 | 44434 ft | 482 kts | 56° |
| 2026-05-08 15:11 | 54.86910 | 89.85221 | 43782 ft | 483 kts | 56° |
| 2026-05-08 15:11 | 54.88586 | 89.90241 | 43146 ft | 477 kts | 56° |
| 2026-05-08 15:11 | 54.90238 | 89.95192 | 42527 ft | 471 kts | 56° |
| 2026-05-08 15:11 | 54.92401 | 90.01670 | 41705 ft | 464 kts | 56° |
| 2026-05-08 15:12 | 54.94009 | 90.06506 | 41097 ft | 459 kts | 56° |
| 2026-05-08 15:12 | 54.95063 | 90.09682 | 40705 ft | 454 kts | 56° |
| 2026-05-08 15:12 | 54.96627 | 90.14408 | 40109 ft | 449 kts | 56° |
| 2026-05-08 15:12 | 54.98181 | 90.19101 | 39521 ft | 444 kts | 56° |
| 2026-05-08 15:13 | 54.99714 | 90.23741 | 38942 ft | 441 kts | 55° |
| 2026-05-08 15:13 | 55.01232 | 90.28350 | 38305 ft | 437 kts | 55° |
| 2026-05-08 15:13 | 55.02737 | 90.32926 | 37723 ft | 433 kts | 55° |
| 2026-05-08 15:13 | 55.04229 | 90.37471 | 37156 ft | 431 kts | 55° |
| 2026-05-08 15:14 | 55.05717 | 90.42012 | 36587 ft | 433 kts | 56° |
| 2026-05-08 15:14 | 55.07209 | 90.46595 | 36019 ft | 436 kts | 56° |
| 2026-05-08 15:14 | 55.08711 | 90.51217 | 35443 ft | 438 kts | 56° |
| 2026-05-08 15:14 | 55.10213 | 90.55843 | 34859 ft | 437 kts | 56° |
| 2026-05-08 15:15 | 55.11710 | 90.60460 | 34276 ft | 436 kts | 56° |
| 2026-05-08 15:15 | 55.13194 | 90.65046 | 33676 ft | 434 kts | 56° |
| 2026-05-08 15:15 | 55.14653 | 90.69564 | 33092 ft | 431 kts | 56° |
| 2026-05-08 15:15 | 55.16124 | 90.74128 | 32540 ft | 430 kts | 56° |
| 2026-05-08 15:16 | 55.17596 | 90.78698 | 32009 ft | 433 kts | 57° |
| 2026-05-08 15:16 | 55.19069 | 90.83287 | 31528 ft | 428 kts | 57° |
| 2026-05-08 15:16 | 55.20488 | 90.87736 | 30831 ft | 407 kts | 57° |
| 2026-05-08 15:16 | 55.21857 | 90.92016 | 30074 ft | 403 kts | 57° |
| 2026-05-08 15:17 | 55.23228 | 90.96284 | 29285 ft | 400 kts | 57° |
| 2026-05-08 15:17 | 55.24584 | 91.00535 | 28528 ft | 401 kts | 57° |
| 2026-05-08 15:17 | 55.25906 | 91.04707 | 27786 ft | 385 kts | 57° |
| 2026-05-08 15:17 | 55.27205 | 91.08801 | 27064 ft | 382 kts | 57° |
| 2026-05-08 15:18 | 55.28479 | 91.12805 | 26352 ft | 380 kts | 57° |
| 2026-05-08 15:18 | 55.29761 | 91.16850 | 25638 ft | 379 kts | 57° |
| 2026-05-08 15:18 | 55.31038 | 91.20894 | 24928 ft | 378 kts | 57° |
| 2026-05-08 15:18 | 55.32313 | 91.24936 | 24218 ft | 377 kts | 57° |
| 2026-05-08 15:19 | 55.33582 | 91.28962 | 23494 ft | 377 kts | 57° |
| 2026-05-08 15:19 | 55.34842 | 91.32970 | 22754 ft | 374 kts | 57° |
| 2026-05-08 15:19 | 55.36054 | 91.36846 | 22069 ft | 340 kts | 57° |
| 2026-05-08 15:19 | 55.37186 | 91.40466 | 21443 ft | 338 kts | 57° |
| 2026-05-08 15:20 | 55.38329 | 91.44089 | 20799 ft | 338 kts | 57° |
| 2026-05-08 15:20 | 55.39449 | 91.47664 | 20171 ft | 338 kts | 58° |
| 2026-05-08 15:20 | 55.40578 | 91.51294 | 19540 ft | 339 kts | 58° |
| 2026-05-08 15:20 | 55.41702 | 91.54941 | 18957 ft | 338 kts | 60° |
| 2026-05-08 15:21 | 55.42348 | 91.58800 | 18925 ft | 325 kts | 85° |
| 2026-05-08 15:21 | 55.42008 | 91.62613 | 18923 ft | 311 kts | 111° |
| 2026-05-08 15:21 | 55.40875 | 91.65716 | 18920 ft | 297 kts | 136° |
| 2026-05-08 15:21 | 55.39204 | 91.67727 | 18925 ft | 290 kts | 160° |
| 2026-05-08 15:22 | 55.37241 | 91.68452 | 18923 ft | 291 kts | 184° |
| 2026-05-08 15:22 | 55.35280 | 91.67811 | 18936 ft | 285 kts | 207° |
| 2026-05-08 15:22 | 55.33640 | 91.65976 | 18927 ft | 278 kts | 229° |
| 2026-05-08 15:22 | 55.32488 | 91.63310 | 18922 ft | 273 kts | 242° |
| 2026-05-08 15:23 | 55.31500 | 91.60462 | 18922 ft | 273 kts | 242° |
| 2026-05-08 15:23 | 55.30524 | 91.57656 | 18923 ft | 273 kts | 242° |
| 2026-05-08 15:23 | 55.29531 | 91.54807 | 18925 ft | 274 kts | 242° |
| 2026-05-08 15:23 | 55.28537 | 91.51962 | 18927 ft | 274 kts | 242° |
| 2026-05-08 15:24 | 55.27545 | 91.49111 | 18927 ft | 273 kts | 245° |
| 2026-05-08 15:24 | 55.27041 | 91.45989 | 18934 ft | 266 kts | 270° |
| 2026-05-08 15:24 | 55.27210 | 91.42800 | 18935 ft | 262 kts | 288° |
| 2026-05-08 15:24 | 55.27981 | 91.39935 | 18932 ft | 260 kts | 307° |
| 2026-05-08 15:25 | 55.29257 | 91.37707 | 18937 ft | 260 kts | 325° |
| 2026-05-08 15:25 | 55.30885 | 91.36364 | 18769 ft | 268 kts | 344° |
| 2026-05-08 15:25 | 55.32742 | 91.36099 | 18554 ft | 271 kts | 4° |
| 2026-05-08 15:25 | 55.34379 | 91.36876 | 18364 ft | 274 kts | 21° |
| 2026-05-08 15:26 | 55.35940 | 91.38808 | 18137 ft | 278 kts | 43° |
| 2026-05-08 15:26 | 55.37068 | 91.41590 | 17881 ft | 281 kts | 54° |
| 2026-05-08 15:26 | 55.38081 | 91.44522 | 17615 ft | 280 kts | 55° |
| 2026-05-08 15:26 | 55.39097 | 91.47441 | 17355 ft | 280 kts | 54° |
| 2026-05-08 15:27 | 55.40114 | 91.50350 | 17091 ft | 279 kts | 54° |
| 2026-05-08 15:27 | 55.41130 | 91.53264 | 16830 ft | 279 kts | 55° |
| 2026-05-08 15:27 | 55.42090 | 91.56183 | 16570 ft | 280 kts | 64° |
| 2026-05-08 15:27 | 55.42488 | 91.59544 | 16334 ft | 284 kts | 88° |
| 2026-05-08 15:28 | 55.42148 | 91.62969 | 16092 ft | 286 kts | 111° |
| 2026-05-08 15:28 | 55.41105 | 91.65915 | 15853 ft | 284 kts | 135° |
| 2026-05-08 15:28 | 55.39530 | 91.67948 | 15628 ft | 280 kts | 158° |
| 2026-05-08 15:28 | 55.37674 | 91.68803 | 15403 ft | 274 kts | 180° |
| 2026-05-08 15:29 | 55.35812 | 91.68433 | 15169 ft | 267 kts | 201° |
| 2026-05-08 15:29 | 55.34186 | 91.66973 | 14956 ft | 260 kts | 221° |
| 2026-05-08 15:29 | 55.33001 | 91.64742 | 14924 ft | 250 kts | 240° |
| 2026-05-08 15:29 | 55.32098 | 91.62140 | 14930 ft | 251 kts | 241° |
| 2026-05-08 15:30 | 55.31175 | 91.59515 | 14918 ft | 254 kts | 241° |
| 2026-05-08 15:30 | 55.30248 | 91.56871 | 14918 ft | 255 kts | 241° |
| 2026-05-08 15:30 | 55.29323 | 91.54212 | 14935 ft | 255 kts | 241° |
| 2026-05-08 15:30 | 55.28397 | 91.51551 | 14928 ft | 255 kts | 243° |
| 2026-05-08 15:31 | 55.27926 | 91.48631 | 14939 ft | 254 kts | 274° |
| 2026-05-08 15:31 | 55.28462 | 91.45598 | 14946 ft | 269 kts | 304° |
| 2026-05-08 15:31 | 55.29851 | 91.43437 | 14944 ft | 273 kts | 333° |
| 2026-05-08 15:31 | 55.31727 | 91.42796 | 14941 ft | 282 kts | 2° |
| 2026-05-08 15:32 | 55.33597 | 91.43893 | 14935 ft | 290 kts | 31° |
| 2026-05-08 15:32 | 55.35015 | 91.46428 | 14940 ft | 297 kts | 52° |
| 2026-05-08 15:32 | 55.36122 | 91.49508 | 14930 ft | 298 kts | 57° |
| 2026-05-08 15:32 | 55.37151 | 91.52676 | 14933 ft | 298 kts | 58° |
| 2026-05-08 15:33 | 55.38148 | 91.55822 | 14930 ft | 298 kts | 58° |
| 2026-05-08 15:33 | 55.39157 | 91.59027 | 14761 ft | 303 kts | 58° |
| 2026-05-08 15:33 | 55.40176 | 91.62264 | 14520 ft | 301 kts | 58° |
| 2026-05-08 15:33 | 55.41183 | 91.65460 | 14278 ft | 297 kts | 58° |
| 2026-05-08 15:34 | 55.42196 | 91.68662 | 14042 ft | 309 kts | 58° |
| 2026-05-08 15:34 | 55.43282 | 91.72073 | 13815 ft | 324 kts | 58° |
| 2026-05-08 15:34 | 55.44391 | 91.75539 | 13575 ft | 326 kts | 58° |
| 2026-05-08 15:34 | 55.45511 | 91.79029 | 13320 ft | 327 kts | 58° |
| 2026-05-08 15:35 | 55.46632 | 91.82507 | 13054 ft | 324 kts | 58° |
| 2026-05-08 15:35 | 55.47732 | 91.85924 | 12789 ft | 317 kts | 58° |
| 2026-05-08 15:35 | 55.48787 | 91.89202 | 12531 ft | 312 kts | 58° |
| 2026-05-08 15:35 | 55.49857 | 91.92522 | 12269 ft | 310 kts | 58° |
| 2026-05-08 15:36 | 55.50933 | 91.95853 | 12008 ft | 316 kts | 58° |
| 2026-05-08 15:36 | 55.52033 | 91.99251 | 11765 ft | 321 kts | 58° |
| 2026-05-08 15:36 | 55.53143 | 92.02673 | 11514 ft | 321 kts | 58° |
| 2026-05-08 15:36 | 55.54252 | 92.06090 | 11265 ft | 320 kts | 58° |
| 2026-05-08 15:37 | 55.55359 | 92.09496 | 11016 ft | 319 kts | 58° |
| 2026-05-08 15:37 | 55.56462 | 92.12889 | 10773 ft | 318 kts | 58° |
| 2026-05-08 15:37 | 55.57561 | 92.16272 | 10525 ft | 317 kts | 58° |
| 2026-05-08 15:37 | 55.58654 | 92.19639 | 10285 ft | 317 kts | 58° |
| 2026-05-08 15:38 | 55.59802 | 92.23151 | 10056 ft | 340 kts | 58° |
| 2026-05-08 15:38 | 55.60995 | 92.26793 | 9827 ft | 341 kts | 58° |
| 2026-05-08 15:38 | 55.62174 | 92.30388 | 9565 ft | 336 kts | 58° |
| 2026-05-08 15:38 | 55.63344 | 92.33956 | 9286 ft | 335 kts | 58° |
| 2026-05-08 15:39 | 55.64510 | 92.37509 | 9046 ft | 331 kts | 58° |
| 2026-05-08 15:39 | 55.65621 | 92.40914 | 8894 ft | 315 kts | 58° |
| 2026-05-08 15:39 | 55.66716 | 92.44278 | 8893 ft | 320 kts | 58° |
| 2026-05-08 15:39 | 55.67835 | 92.47715 | 8895 ft | 324 kts | 58° |
| 2026-05-08 15:40 | 55.68966 | 92.51187 | 8901 ft | 328 kts | 58° |
| 2026-05-08 15:40 | 55.70115 | 92.54714 | 8907 ft | 331 kts | 58° |
| 2026-05-08 15:40 | 55.71268 | 92.58247 | 8906 ft | 331 kts | 58° |
| 2026-05-08 15:40 | 55.72426 | 92.61795 | 8893 ft | 334 kts | 58° |
| 2026-05-08 15:41 | 55.73595 | 92.65375 | 8895 ft | 337 kts | 58° |
| 2026-05-08 15:41 | 55.74772 | 92.68973 | 8893 ft | 337 kts | 58° |
| 2026-05-08 15:41 | 55.75947 | 92.72564 | 8904 ft | 338 kts | 58° |
| 2026-05-08 15:41 | 55.77160 | 92.76133 | 8897 ft | 336 kts | 51° |
| 2026-05-08 15:42 | 55.78853 | 92.78816 | 8839 ft | 332 kts | 26° |
| 2026-05-08 15:42 | 55.81006 | 92.80163 | 8594 ft | 325 kts | 9° |
| 2026-05-08 15:42 | 55.83174 | 92.80799 | 8345 ft | 307 kts | 4° |
| 2026-05-08 15:42 | 55.85240 | 92.81252 | 8075 ft | 293 kts | 3° |
| 2026-05-08 15:43 | 55.87234 | 92.81657 | 7818 ft | 286 kts | 3° |
| 2026-05-08 15:43 | 55.89202 | 92.82048 | 7561 ft | 283 kts | 3° |
| 2026-05-08 15:43 | 55.91163 | 92.82437 | 7312 ft | 283 kts | 3° |
| 2026-05-08 15:43 | 55.93106 | 92.82822 | 7070 ft | 279 kts | 3° |
| 2026-05-08 15:44 | 55.95016 | 92.83205 | 6817 ft | 274 kts | 3° |
| 2026-05-08 15:44 | 55.96870 | 92.83946 | 6574 ft | 276 kts | 22° |
| 2026-05-08 15:44 | 55.98274 | 92.86087 | 6349 ft | 262 kts | 52° |
| 2026-05-08 15:44 | 55.99124 | 92.88878 | 6101 ft | 253 kts | 62° |
| 2026-05-08 15:45 | 55.99847 | 92.91679 | 5846 ft | 250 kts | 63° |
| 2026-05-08 15:45 | 56.00566 | 92.94506 | 5588 ft | 249 kts | 63° |
| 2026-05-08 15:45 | 56.01281 | 92.97319 | 5330 ft | 249 kts | 63° |
| 2026-05-08 15:45 | 56.01995 | 93.00126 | 5085 ft | 248 kts | 63° |
| 2026-05-08 15:46 | 56.02711 | 93.02923 | 4837 ft | 247 kts | 63° |
| 2026-05-08 15:46 | 56.03427 | 93.05706 | 4584 ft | 246 kts | 63° |
| 2026-05-08 15:46 | 56.04142 | 93.08474 | 4329 ft | 245 kts | 63° |
| 2026-05-08 15:46 | 56.04858 | 93.11236 | 4075 ft | 244 kts | 62° |
| 2026-05-08 15:47 | 56.05903 | 93.13488 | 3985 ft | 232 kts | 30° |
| 2026-05-08 15:47 | 56.07437 | 93.14267 | 3744 ft | 230 kts | 354° |
| 2026-05-08 15:47 | 56.08882 | 93.13315 | 3511 ft | 222 kts | 319° |
| 2026-05-08 15:47 | 56.09708 | 93.11095 | 3279 ft | 220 kts | 289° |
| 2026-05-08 15:48 | 56.10440 | 93.05818 | 3000 ft | 215 kts | 283° |
| 2026-05-08 15:48 | 56.10767 | 93.03176 | 3001 ft | 218 kts | 283° |
| 2026-05-08 15:48 | 56.11095 | 93.00522 | 3004 ft | 219 kts | 282° |
| 2026-05-08 15:49 | 56.11426 | 92.97852 | 3009 ft | 220 kts | 283° |
| 2026-05-08 15:49 | 56.11758 | 92.95172 | 2998 ft | 220 kts | 283° |
| 2026-05-08 15:49 | 56.12092 | 92.92484 | 2998 ft | 221 kts | 283° |
| 2026-05-08 15:49 | 56.12423 | 92.89800 | 2999 ft | 220 kts | 283° |
| 2026-05-08 15:50 | 56.12755 | 92.87112 | 3002 ft | 222 kts | 283° |
| 2026-05-08 15:50 | 56.13091 | 92.84419 | 3001 ft | 221 kts | 283° |
| 2026-05-08 15:50 | 56.13427 | 92.81744 | 3009 ft | 221 kts | 283° |
| 2026-05-08 15:50 | 56.13761 | 92.79090 | 3009 ft | 221 kts | 283° |
| 2026-05-08 15:51 | 56.14092 | 92.76460 | 3012 ft | 207 kts | 283° |
| 2026-05-08 15:51 | 56.14374 | 92.74191 | 3000 ft | 162 kts | 283° |
| 2026-05-08 15:51 | 56.14607 | 92.72335 | 2995 ft | 147 kts | 283° |
| 2026-05-08 15:51 | 56.14826 | 92.70579 | 2988 ft | 142 kts | 283° |
| 2026-05-08 15:52 | 56.15040 | 92.68866 | 3003 ft | 141 kts | 283° |
| 2026-05-08 15:52 | 56.15277 | 92.67167 | 2936 ft | 139 kts | 285° |
| 2026-05-08 15:52 | 56.15545 | 92.65484 | 2827 ft | 141 kts | 286° |
| 2026-05-08 15:52 | 56.15819 | 92.63804 | 2450 ft | 138 kts | 286° |
| 2026-05-08 15:53 | 56.16082 | 92.62210 | 1969 ft | 133 kts | 288° |
| 2026-05-08 15:53 | 56.16389 | 92.60670 | 1536 ft | 134 kts | 290° |
| 2026-05-08 15:53 | 56.16721 | 92.59118 | 1213 ft | 129 kts | 292° |
| 2026-05-08 15:53 | 56.17054 | 92.57638 | 1060 ft | 128 kts | 292° |
| 2026-05-08 15:54 | 56.17394 | 92.56146 | 924 ft | 130 kts | 294° |
| 2026-05-08 15:54 | 56.17740 | 92.54685 | 818 ft | 115 kts | 293° |
| 2026-05-08 15:54 | 56.17960 | 92.53746 | 828 ft | 48 kts | 293° |
| 2026-05-08 15:54 | 56.18039 | 92.53394 | 833 ft | 21 kts | 275° |
| 2026-05-08 15:55 | 56.17993 | 92.53303 | 835 ft | 9 kts | 203° |
| 2026-05-08 15:55 | 56.17851 | 92.53193 | 836 ft | 9 kts | 203° |
| 2026-05-08 15:55 | 56.17795 | 92.53159 | 835 ft | 8 kts | 171° |
| 2026-05-08 15:56 | 56.17779 | 92.53196 | 835 ft | 0 kts | 111° |
| 2026-05-08 15:56 | 56.17777 | 92.53203 | 835 ft | 0 kts | 112° |